THY8RW LTFM-LTCM
Flight info
| Callsign | THY8RW |
|---|---|
| Flight time | 0h 56m |
| Altitude | 37000 |
| Route | EKAWE1E/36 EKAWE UT641 ABSAX UN743 GAKSU UT310 OTKOT T310 ATNOP |
| Aircraft | A319/M-SDE3FGHIRWY/LB1 |
Departure
| Time | 2026-04-25 16:33 |
|---|---|
| Airport | İstanbul Airport (LTFM) |
Arrival
| Time | 2026-04-25 17:29 |
|---|---|
| Airport | Sinop Airport (LTCM) |
| Time | Latitude | Longitude | Altitude | Speed | Heading |
|---|---|---|---|---|---|
| 2026-04-25 15:57 | 41.25877 | 28.75008 | 314 ft | 0 kts | 251° |
| 2026-04-25 16:23 | 41.25880 | 28.75018 | 313 ft | 4 kts | 251° |
| 2026-04-25 16:23 | 41.25888 | 28.75050 | 313 ft | 4 kts | 254° |
| 2026-04-25 16:23 | 41.25894 | 28.75083 | 313 ft | 4 kts | 266° |
| 2026-04-25 16:24 | 41.25891 | 28.75113 | 313 ft | 4 kts | 326° |
| 2026-04-25 16:24 | 41.25886 | 28.75117 | 313 ft | 0 kts | 342° |
| 2026-04-25 16:27 | 41.25896 | 28.75113 | 313 ft | 2 kts | 342° |
| 2026-04-25 16:28 | 41.25909 | 28.75107 | 313 ft | 1 kts | 342° |
| 2026-04-25 16:28 | 41.25924 | 28.75101 | 313 ft | 3 kts | 342° |
| 2026-04-25 16:28 | 41.25951 | 28.75089 | 313 ft | 5 kts | 342° |
| 2026-04-25 16:28 | 41.25989 | 28.75073 | 312 ft | 7 kts | 342° |
| 2026-04-25 16:29 | 41.26040 | 28.75050 | 312 ft | 9 kts | 342° |
| 2026-04-25 16:29 | 41.26082 | 28.75030 | 313 ft | 10 kts | 339° |
| 2026-04-25 16:29 | 41.26180 | 28.74985 | 313 ft | 9 kts | 345° |
| 2026-04-25 16:29 | 41.26236 | 28.75014 | 312 ft | 9 kts | 57° |
| 2026-04-25 16:30 | 41.26241 | 28.75108 | 313 ft | 12 kts | 88° |
| 2026-04-25 16:30 | 41.26242 | 28.75225 | 314 ft | 13 kts | 90° |
| 2026-04-25 16:30 | 41.26243 | 28.75361 | 314 ft | 15 kts | 89° |
| 2026-04-25 16:30 | 41.26244 | 28.75476 | 314 ft | 12 kts | 89° |
| 2026-04-25 16:31 | 41.26244 | 28.75524 | 314 ft | 0 kts | 89° |
| 2026-04-25 16:31 | 41.26244 | 28.75526 | 314 ft | 1 kts | 89° |
| 2026-04-25 16:31 | 41.26245 | 28.75561 | 314 ft | 6 kts | 89° |
| 2026-04-25 16:32 | 41.26246 | 28.75634 | 316 ft | 7 kts | 86° |
| 2026-04-25 16:32 | 41.26285 | 28.75668 | 316 ft | 0 kts | 360° |
| 2026-04-25 16:32 | 41.26287 | 28.75668 | 316 ft | 3 kts | 359° |
| 2026-04-25 16:32 | 41.26543 | 28.75665 | 310 ft | 73 kts | 359° |
| 2026-04-25 16:33 | 41.27265 | 28.75652 | 297 ft | 133 kts | 359° |
| 2026-04-25 16:33 | 41.28332 | 28.75648 | 497 ft | 160 kts | 2° |
| 2026-04-25 16:33 | 41.29439 | 28.75635 | 1138 ft | 159 kts | 5° |
| 2026-04-25 16:33 | 41.30490 | 28.75969 | 1588 ft | 165 kts | 32° |
| 2026-04-25 16:34 | 41.31482 | 28.76911 | 1884 ft | 186 kts | 38° |
| 2026-04-25 16:34 | 41.32624 | 28.77943 | 2187 ft | 212 kts | 34° |
| 2026-04-25 16:34 | 41.33939 | 28.79058 | 2634 ft | 236 kts | 33° |
| 2026-04-25 16:34 | 41.35403 | 28.80245 | 3242 ft | 257 kts | 31° |
| 2026-04-25 16:35 | 41.36964 | 28.81469 | 4170 ft | 264 kts | 30° |
| 2026-04-25 16:35 | 41.38677 | 28.82368 | 5106 ft | 271 kts | 8° |
| 2026-04-25 16:35 | 41.40521 | 28.82314 | 6057 ft | 275 kts | 354° |
| 2026-04-25 16:35 | 41.42388 | 28.82083 | 7017 ft | 278 kts | 354° |
| 2026-04-25 16:36 | 41.44256 | 28.81844 | 7913 ft | 282 kts | 354° |
| 2026-04-25 16:36 | 41.44943 | 28.81756 | 8228 ft | 285 kts | 354° |
| 2026-04-25 16:36 | 41.48234 | 28.81336 | 9673 ft | 293 kts | 354° |
| 2026-04-25 16:36 | 41.50193 | 28.81090 | 10353 ft | 304 kts | 354° |
| 2026-04-25 16:37 | 41.52380 | 28.80815 | 10654 ft | 327 kts | 353° |
| 2026-04-25 16:37 | 41.54722 | 28.80521 | 10935 ft | 348 kts | 353° |
| 2026-04-25 16:37 | 41.57174 | 28.80232 | 11526 ft | 358 kts | 356° |
| 2026-04-25 16:37 | 41.59675 | 28.80447 | 12231 ft | 364 kts | 9° |
| 2026-04-25 16:38 | 41.62123 | 28.81409 | 12944 ft | 370 kts | 22° |
| 2026-04-25 16:38 | 41.64384 | 28.83079 | 13668 ft | 374 kts | 34° |
| 2026-04-25 16:38 | 41.66293 | 28.85464 | 14349 ft | 379 kts | 51° |
| 2026-04-25 16:38 | 41.67602 | 28.88520 | 15029 ft | 382 kts | 67° |
| 2026-04-25 16:39 | 41.68602 | 28.91832 | 15705 ft | 385 kts | 68° |
| 2026-04-25 16:39 | 41.69588 | 28.95180 | 16348 ft | 388 kts | 68° |
| 2026-04-25 16:39 | 41.70573 | 28.98560 | 16966 ft | 392 kts | 68° |
| 2026-04-25 16:39 | 41.71562 | 29.01973 | 17611 ft | 395 kts | 69° |
| 2026-04-25 16:40 | 41.72570 | 29.05455 | 18245 ft | 398 kts | 68° |
| 2026-04-25 16:40 | 41.73576 | 29.08927 | 18856 ft | 401 kts | 68° |
| 2026-04-25 16:40 | 41.74577 | 29.12378 | 19433 ft | 404 kts | 68° |
| 2026-04-25 16:40 | 41.75610 | 29.15943 | 20036 ft | 408 kts | 68° |
| 2026-04-25 16:41 | 41.76643 | 29.19499 | 20608 ft | 411 kts | 68° |
| 2026-04-25 16:41 | 41.77333 | 29.21867 | 20958 ft | 413 kts | 68° |
| 2026-04-25 16:41 | 41.79796 | 29.30331 | 22136 ft | 420 kts | 68° |
| 2026-04-25 16:42 | 41.80846 | 29.33963 | 22603 ft | 423 kts | 68° |
| 2026-04-25 16:42 | 41.81910 | 29.37653 | 23057 ft | 426 kts | 68° |
| 2026-04-25 16:42 | 41.82979 | 29.41374 | 23503 ft | 430 kts | 68° |
| 2026-04-25 16:42 | 41.84056 | 29.45116 | 23944 ft | 432 kts | 68° |
| 2026-04-25 16:43 | 41.85140 | 29.48888 | 24380 ft | 435 kts | 68° |
| 2026-04-25 16:43 | 41.86221 | 29.52655 | 24798 ft | 437 kts | 68° |
| 2026-04-25 16:43 | 41.87318 | 29.56494 | 25203 ft | 440 kts | 68° |
| 2026-04-25 16:43 | 41.88416 | 29.60346 | 25614 ft | 442 kts | 68° |
| 2026-04-25 16:44 | 41.89519 | 29.64211 | 26018 ft | 445 kts | 68° |
| 2026-04-25 16:44 | 41.90623 | 29.68092 | 26407 ft | 447 kts | 68° |
| 2026-04-25 16:44 | 41.91737 | 29.72009 | 26801 ft | 449 kts | 68° |
| 2026-04-25 16:44 | 41.92856 | 29.75944 | 27174 ft | 451 kts | 68° |
| 2026-04-25 16:45 | 41.93979 | 29.79890 | 27530 ft | 453 kts | 68° |
| 2026-04-25 16:45 | 41.95104 | 29.83854 | 27877 ft | 456 kts | 68° |
| 2026-04-25 16:45 | 41.96233 | 29.87838 | 28206 ft | 458 kts | 68° |
| 2026-04-25 16:45 | 41.97365 | 29.91844 | 28535 ft | 460 kts | 68° |
| 2026-04-25 16:46 | 41.98498 | 29.95871 | 28855 ft | 461 kts | 68° |
| 2026-04-25 16:46 | 41.99629 | 29.99906 | 29162 ft | 464 kts | 68° |
| 2026-04-25 16:46 | 42.00764 | 30.03969 | 29468 ft | 465 kts | 68° |
| 2026-04-25 16:46 | 42.01152 | 30.05352 | 29558 ft | 466 kts | 68° |
| 2026-04-25 16:47 | 42.02524 | 30.12366 | 30053 ft | 470 kts | 82° |
| 2026-04-25 16:47 | 42.02707 | 30.16752 | 30469 ft | 470 kts | 90° |
| 2026-04-25 16:47 | 42.02460 | 30.21129 | 30901 ft | 469 kts | 95° |
| 2026-04-25 16:47 | 42.02140 | 30.25479 | 31319 ft | 467 kts | 95° |
| 2026-04-25 16:48 | 42.01822 | 30.29832 | 31735 ft | 466 kts | 95° |
| 2026-04-25 16:48 | 42.01505 | 30.34163 | 32148 ft | 465 kts | 95° |
| 2026-04-25 16:48 | 42.01183 | 30.38527 | 32557 ft | 463 kts | 95° |
| 2026-04-25 16:48 | 42.00863 | 30.42837 | 32961 ft | 462 kts | 95° |
| 2026-04-25 16:49 | 42.00540 | 30.47134 | 33362 ft | 461 kts | 95° |
| 2026-04-25 16:49 | 42.00213 | 30.51419 | 33742 ft | 460 kts | 95° |
| 2026-04-25 16:49 | 41.99889 | 30.55697 | 34118 ft | 460 kts | 94° |
| 2026-04-25 16:49 | 41.99795 | 30.59970 | 34510 ft | 457 kts | 88° |
| 2026-04-25 16:50 | 41.99830 | 30.64243 | 34881 ft | 456 kts | 88° |
| 2026-04-25 16:50 | 41.99864 | 30.68512 | 35229 ft | 457 kts | 89° |
| 2026-04-25 16:50 | 41.99896 | 30.72786 | 35554 ft | 457 kts | 89° |
| 2026-04-25 16:50 | 41.99926 | 30.77052 | 35863 ft | 457 kts | 89° |
| 2026-04-25 16:51 | 41.99953 | 30.81335 | 36146 ft | 458 kts | 89° |
| 2026-04-25 16:51 | 41.99977 | 30.85616 | 36393 ft | 459 kts | 89° |
| 2026-04-25 16:51 | 41.99998 | 30.89911 | 36643 ft | 460 kts | 89° |
| 2026-04-25 16:51 | 42.00004 | 30.91364 | 36728 ft | 460 kts | 89° |
| 2026-04-25 16:52 | 42.00034 | 30.98506 | 37005 ft | 460 kts | 88° |
| 2026-04-25 16:52 | 42.00307 | 31.02766 | 37028 ft | 456 kts | 79° |
| 2026-04-25 16:52 | 42.01926 | 31.10962 | 37031 ft | 452 kts | 73° |
| 2026-04-25 16:53 | 42.04521 | 31.23146 | 37031 ft | 452 kts | 73° |
| 2026-04-25 16:54 | 42.06234 | 31.31300 | 37025 ft | 453 kts | 73° |
| 2026-04-25 16:54 | 42.07962 | 31.39504 | 37021 ft | 453 kts | 73° |
| 2026-04-25 16:55 | 42.09676 | 31.47661 | 37019 ft | 453 kts | 73° |
| 2026-04-25 16:55 | 42.11382 | 31.55781 | 37019 ft | 453 kts | 73° |
| 2026-04-25 16:56 | 42.13094 | 31.63962 | 37012 ft | 454 kts | 73° |
| 2026-04-25 16:56 | 42.14787 | 31.72142 | 37012 ft | 454 kts | 73° |
| 2026-04-25 16:57 | 42.16485 | 31.80344 | 37013 ft | 455 kts | 73° |
| 2026-04-25 16:57 | 42.18184 | 31.88559 | 37019 ft | 455 kts | 73° |
| 2026-04-25 16:58 | 42.19873 | 31.96770 | 37023 ft | 455 kts | 74° |
| 2026-04-25 16:58 | 42.21550 | 32.05000 | 37030 ft | 455 kts | 74° |
| 2026-04-25 16:59 | 42.23226 | 32.13242 | 37029 ft | 455 kts | 74° |
| 2026-04-25 16:59 | 42.24900 | 32.21475 | 37027 ft | 454 kts | 73° |
| 2026-04-25 17:00 | 42.26730 | 32.29695 | 37026 ft | 455 kts | 71° |
| 2026-04-25 17:00 | 42.28665 | 32.37842 | 37029 ft | 456 kts | 71° |
| 2026-04-25 17:01 | 42.30573 | 32.46018 | 37034 ft | 456 kts | 72° |
| 2026-04-25 17:01 | 42.32378 | 32.54232 | 37028 ft | 457 kts | 77° |
| 2026-04-25 17:01 | 42.32847 | 32.58479 | 36783 ft | 458 kts | 86° |
| 2026-04-25 17:02 | 42.32823 | 32.62787 | 36531 ft | 458 kts | 96° |
| 2026-04-25 17:02 | 42.32393 | 32.67032 | 36289 ft | 457 kts | 99° |
| 2026-04-25 17:02 | 42.31915 | 32.71290 | 36052 ft | 458 kts | 99° |
| 2026-04-25 17:03 | 42.30949 | 32.79837 | 35544 ft | 462 kts | 99° |
| 2026-04-25 17:03 | 42.30629 | 32.82679 | 35378 ft | 464 kts | 99° |
| 2026-04-25 17:03 | 42.30135 | 32.87004 | 35126 ft | 466 kts | 99° |
| 2026-04-25 17:03 | 42.29633 | 32.91347 | 34884 ft | 467 kts | 99° |
| 2026-04-25 17:04 | 42.29130 | 32.95681 | 34635 ft | 468 kts | 99° |
| 2026-04-25 17:04 | 42.28625 | 33.00018 | 34384 ft | 468 kts | 99° |
| 2026-04-25 17:04 | 42.28123 | 33.04363 | 34131 ft | 468 kts | 99° |
| 2026-04-25 17:04 | 42.27614 | 33.08757 | 33876 ft | 469 kts | 99° |
| 2026-04-25 17:05 | 42.27107 | 33.13105 | 33624 ft | 469 kts | 99° |
| 2026-04-25 17:05 | 42.26079 | 33.21877 | 32017 ft | 474 kts | 99° |
| 2026-04-25 17:05 | 42.25567 | 33.26245 | 31505 ft | 469 kts | 99° |
| 2026-04-25 17:06 | 42.25059 | 33.30581 | 30914 ft | 466 kts | 99° |
| 2026-04-25 17:06 | 42.24553 | 33.34881 | 30340 ft | 462 kts | 99° |
| 2026-04-25 17:06 | 42.24049 | 33.39132 | 29766 ft | 457 kts | 99° |
| 2026-04-25 17:06 | 42.23543 | 33.43356 | 29193 ft | 454 kts | 99° |
| 2026-04-25 17:07 | 42.23038 | 33.47534 | 28622 ft | 450 kts | 99° |
| 2026-04-25 17:07 | 42.22533 | 33.51695 | 28053 ft | 447 kts | 99° |
| 2026-04-25 17:07 | 42.22033 | 33.55818 | 27504 ft | 443 kts | 99° |
| 2026-04-25 17:07 | 42.21583 | 33.59532 | 26613 ft | 442 kts | 99° |
| 2026-04-25 17:08 | 42.21087 | 33.63635 | 25434 ft | 442 kts | 99° |
| 2026-04-25 17:08 | 42.20593 | 33.67719 | 24259 ft | 441 kts | 99° |
| 2026-04-25 17:08 | 42.20148 | 33.71390 | 23303 ft | 437 kts | 99° |
| 2026-04-25 17:08 | 42.19654 | 33.75422 | 22338 ft | 430 kts | 99° |
| 2026-04-25 17:09 | 42.19167 | 33.79385 | 21393 ft | 423 kts | 99° |
| 2026-04-25 17:09 | 42.18698 | 33.83199 | 20488 ft | 417 kts | 99° |
| 2026-04-25 17:09 | 42.18228 | 33.87024 | 19823 ft | 406 kts | 100° |
| 2026-04-25 17:09 | 42.17776 | 33.90698 | 19342 ft | 389 kts | 100° |
| 2026-04-25 17:10 | 42.17335 | 33.94297 | 18839 ft | 381 kts | 100° |
| 2026-04-25 17:10 | 42.16901 | 33.97800 | 18323 ft | 378 kts | 100° |
| 2026-04-25 17:10 | 42.16465 | 34.01277 | 17821 ft | 375 kts | 100° |
| 2026-04-25 17:10 | 42.16031 | 34.04739 | 17317 ft | 372 kts | 100° |
| 2026-04-25 17:11 | 42.15604 | 34.08160 | 16759 ft | 371 kts | 100° |
| 2026-04-25 17:11 | 42.15174 | 34.11588 | 16234 ft | 368 kts | 100° |
| 2026-04-25 17:11 | 42.14746 | 34.14974 | 15731 ft | 365 kts | 100° |
| 2026-04-25 17:11 | 42.14320 | 34.18330 | 15229 ft | 362 kts | 101° |
| 2026-04-25 17:12 | 42.13898 | 34.21657 | 14731 ft | 359 kts | 100° |
| 2026-04-25 17:12 | 42.13481 | 34.24955 | 14232 ft | 356 kts | 101° |
| 2026-04-25 17:12 | 42.13067 | 34.28226 | 13735 ft | 353 kts | 101° |
| 2026-04-25 17:12 | 42.12654 | 34.31471 | 13243 ft | 350 kts | 101° |
| 2026-04-25 17:13 | 42.12241 | 34.34698 | 12746 ft | 348 kts | 101° |
| 2026-04-25 17:13 | 42.11969 | 34.36815 | 12423 ft | 346 kts | 101° |
| 2026-04-25 17:13 | 42.11420 | 34.41078 | 11767 ft | 343 kts | 101° |
| 2026-04-25 17:13 | 42.11014 | 34.44233 | 11285 ft | 340 kts | 101° |
| 2026-04-25 17:14 | 42.10598 | 34.47346 | 10810 ft | 337 kts | 101° |
| 2026-04-25 17:14 | 42.10175 | 34.50434 | 10378 ft | 333 kts | 102° |
| 2026-04-25 17:14 | 42.09756 | 34.53434 | 10245 ft | 320 kts | 102° |
| 2026-04-25 17:14 | 42.09353 | 34.56324 | 10105 ft | 309 kts | 102° |
| 2026-04-25 17:15 | 42.08965 | 34.59122 | 9866 ft | 301 kts | 102° |
| 2026-04-25 17:15 | 42.08583 | 34.61870 | 9678 ft | 298 kts | 102° |
| 2026-04-25 17:15 | 42.08199 | 34.64618 | 9334 ft | 298 kts | 102° |
| 2026-04-25 17:15 | 42.07847 | 34.67131 | 8972 ft | 298 kts | 102° |
| 2026-04-25 17:16 | 42.07464 | 34.69870 | 8569 ft | 297 kts | 102° |
| 2026-04-25 17:16 | 42.07083 | 34.72596 | 8206 ft | 293 kts | 102° |
| 2026-04-25 17:16 | 42.06712 | 34.75264 | 7778 ft | 288 kts | 102° |
| 2026-04-25 17:16 | 42.06342 | 34.77904 | 7382 ft | 286 kts | 102° |
| 2026-04-25 17:17 | 42.05973 | 34.80495 | 6999 ft | 284 kts | 102° |
| 2026-04-25 17:17 | 42.05612 | 34.83048 | 6619 ft | 275 kts | 101° |
| 2026-04-25 17:17 | 42.05262 | 34.85548 | 6252 ft | 268 kts | 101° |
| 2026-04-25 17:17 | 42.04932 | 34.87942 | 5892 ft | 261 kts | 101° |
| 2026-04-25 17:18 | 42.04619 | 34.90308 | 5543 ft | 253 kts | 101° |
| 2026-04-25 17:18 | 42.04320 | 34.92565 | 5211 ft | 246 kts | 101° |
| 2026-04-25 17:18 | 42.04023 | 34.94792 | 4880 ft | 237 kts | 101° |
| 2026-04-25 17:18 | 42.03739 | 34.96917 | 4567 ft | 234 kts | 101° |
| 2026-04-25 17:19 | 42.03450 | 34.99067 | 4250 ft | 232 kts | 101° |
| 2026-04-25 17:19 | 42.03159 | 35.01188 | 3932 ft | 229 kts | 102° |
| 2026-04-25 17:19 | 42.02875 | 35.03280 | 3608 ft | 225 kts | 102° |
| 2026-04-25 17:19 | 42.02649 | 35.05336 | 3307 ft | 221 kts | 95° |
| 2026-04-25 17:20 | 42.02771 | 35.07373 | 3017 ft | 218 kts | 80° |
| 2026-04-25 17:20 | 42.03266 | 35.09281 | 2820 ft | 212 kts | 67° |
| 2026-04-25 17:20 | 42.04042 | 35.10908 | 2675 ft | 208 kts | 57° |
| 2026-04-25 17:20 | 42.04885 | 35.12491 | 2513 ft | 209 kts | 58° |
| 2026-04-25 17:21 | 42.05723 | 35.14084 | 2347 ft | 209 kts | 58° |
| 2026-04-25 17:21 | 42.06538 | 35.15636 | 2185 ft | 208 kts | 58° |
| 2026-04-25 17:21 | 42.07290 | 35.17353 | 2021 ft | 207 kts | 70° |
| 2026-04-25 17:21 | 42.07680 | 35.19188 | 1927 ft | 204 kts | 84° |
| 2026-04-25 17:22 | 42.07726 | 35.21083 | 1894 ft | 203 kts | 97° |
| 2026-04-25 17:22 | 42.07588 | 35.22344 | 1907 ft | 201 kts | 102° |
| 2026-04-25 17:22 | 42.07293 | 35.24808 | 1901 ft | 201 kts | 101° |
| 2026-04-25 17:22 | 42.07074 | 35.26673 | 1910 ft | 201 kts | 101° |
| 2026-04-25 17:23 | 42.06880 | 35.28563 | 1893 ft | 200 kts | 94° |
| 2026-04-25 17:23 | 42.07151 | 35.30315 | 1898 ft | 188 kts | 67° |
| 2026-04-25 17:23 | 42.07937 | 35.31698 | 1904 ft | 188 kts | 43° |
| 2026-04-25 17:23 | 42.09100 | 35.32506 | 1903 ft | 192 kts | 17° |
| 2026-04-25 17:24 | 42.10440 | 35.32542 | 1901 ft | 196 kts | 350° |
| 2026-04-25 17:24 | 42.11680 | 35.31764 | 1913 ft | 199 kts | 322° |
| 2026-04-25 17:24 | 42.12541 | 35.30325 | 1904 ft | 199 kts | 294° |
| 2026-04-25 17:24 | 42.12831 | 35.28527 | 1963 ft | 197 kts | 266° |
| 2026-04-25 17:25 | 42.12687 | 35.27330 | 1919 ft | 195 kts | 249° |
| 2026-04-25 17:25 | 42.11800 | 35.25383 | 1900 ft | 175 kts | 229° |
| 2026-04-25 17:25 | 42.11092 | 35.24081 | 1905 ft | 171 kts | 229° |
| 2026-04-25 17:25 | 42.10394 | 35.22800 | 1904 ft | 168 kts | 229° |
| 2026-04-25 17:26 | 42.09706 | 35.21541 | 1906 ft | 167 kts | 229° |
| 2026-04-25 17:26 | 42.09019 | 35.20287 | 1908 ft | 166 kts | 229° |
| 2026-04-25 17:26 | 42.08330 | 35.19030 | 1884 ft | 167 kts | 229° |
| 2026-04-25 17:26 | 42.07654 | 35.17793 | 1736 ft | 160 kts | 230° |
| 2026-04-25 17:27 | 42.07009 | 35.16611 | 1543 ft | 155 kts | 229° |
| 2026-04-25 17:27 | 42.06379 | 35.15462 | 1352 ft | 149 kts | 230° |
| 2026-04-25 17:27 | 42.05785 | 35.14374 | 1171 ft | 138 kts | 229° |
| 2026-04-25 17:27 | 42.05600 | 35.14036 | 1109 ft | 135 kts | 229° |
| 2026-04-25 17:28 | 42.04691 | 35.12378 | 826 ft | 130 kts | 226° |
| 2026-04-25 17:28 | 42.04154 | 35.11395 | 649 ft | 129 kts | 226° |
| 2026-04-25 17:28 | 42.03614 | 35.10412 | 469 ft | 129 kts | 228° |
| 2026-04-25 17:28 | 42.03082 | 35.09447 | 301 ft | 129 kts | 227° |
| 2026-04-25 17:29 | 42.02549 | 35.08485 | 128 ft | 128 kts | 229° |
| 2026-04-25 17:29 | 42.02037 | 35.07565 | 41 ft | 114 kts | 232° |
| 2026-04-25 17:29 | 42.01714 | 35.06959 | 39 ft | 60 kts | 234° |
| 2026-04-25 17:29 | 42.01515 | 35.06595 | 41 ft | 41 kts | 233° |
| 2026-04-25 17:30 | 42.01393 | 35.06371 | 40 ft | 16 kts | 242° |
| 2026-04-25 17:30 | 42.01384 | 35.06262 | 40 ft | 11 kts | 249° |
| 2026-04-25 17:30 | 42.01349 | 35.06289 | 38 ft | 9 kts | 85° |
| 2026-04-25 17:30 | 42.01388 | 35.06368 | 40 ft | 12 kts | 53° |
| 2026-04-25 17:31 | 42.01443 | 35.06467 | 39 ft | 15 kts | 53° |
| 2026-04-25 17:31 | 42.01503 | 35.06575 | 40 ft | 15 kts | 53° |
| 2026-04-25 17:31 | 42.01572 | 35.06700 | 39 ft | 18 kts | 53° |
| 2026-04-25 17:31 | 42.01655 | 35.06851 | 40 ft | 22 kts | 53° |
| 2026-04-25 17:32 | 42.01752 | 35.07028 | 38 ft | 26 kts | 53° |
| 2026-04-25 17:32 | 42.01853 | 35.07211 | 39 ft | 23 kts | 52° |
| 2026-04-25 17:32 | 42.01954 | 35.07395 | 39 ft | 23 kts | 53° |
| 2026-04-25 17:32 | 42.02048 | 35.07566 | 40 ft | 23 kts | 53° |
| 2026-04-25 17:33 | 42.02100 | 35.07679 | 39 ft | 10 kts | 85° |
| 2026-04-25 17:33 | 42.02050 | 35.07745 | 38 ft | 9 kts | 144° |
| 2026-04-25 17:33 | 42.02001 | 35.07795 | 39 ft | 6 kts | 141° |
| 2026-04-25 17:33 | 42.01971 | 35.07853 | 39 ft | 8 kts | 123° |
| 2026-04-25 17:34 | 42.01941 | 35.07888 | 39 ft | 0 kts | 144° |
| 2026-04-25 17:34 | 42.01939 | 35.07891 | 37 ft | 2 kts | 144° |
| 2026-04-25 17:34 | 42.01938 | 35.07891 | 39 ft | 0 kts | 144° |